CSE3 weather

Lourdes-De-Joliette Airport
Lourdes-De-Joliette, Quebec, Canada

Public forecast

Using degrees Celsius for public forecast. Weather courtesy of forecast.io.

METAR (pilot weather report)

Closest report is Trois-Rivières Airport, 35.3 nm (65.4 km) ENE. Retrieved 2019/07/18 18:00 UTC (41 minutes ago):

CYRQ 181800Z AUTO VRB06KT 9SM CLR 24/11 A2996 RMK SLP146 DENSITY ALT 1200FT

TAF (pilot weather forecast)

Closest forecast is Trois-Rivières Airport, 35.3 nm (65.4 km) ENE. Retrieved 2019/07/18 14:00 UTC (5 hours ago):

TAF CYRQ 181338Z 1814/1902 03007KT P6SM SKC BECMG 1818/1820 18005KT BECMG 1822/1824 23005KT RMK FCST BASED ON AUTO OBS. NXT FCST BY 182000Z